createdAt,value
2023-01-18T00:04:08.520Z,-1.01
2023-01-18T00:09:14.010Z,-1.02
2023-01-18T00:14:15.542Z,-0.99
2023-01-18T00:19:17.085Z,-1.01
2023-01-18T00:24:18.839Z,-1.02
2023-01-18T00:29:20.431Z,-1.02
2023-01-18T00:34:22.051Z,-1.01
2023-01-18T00:39:23.635Z,-1.04
2023-01-18T00:44:25.157Z,-1.04
2023-01-18T00:49:26.679Z,-1.03
2023-01-18T00:54:30.561Z,-1.03
2023-01-18T00:59:32.102Z,-0.98
2023-01-18T01:04:52.244Z,-0.95
2023-01-18T01:09:53.773Z,-0.94
2023-01-18T01:15:14.075Z,-0.94
2023-01-18T01:20:39.409Z,-0.93
2023-01-18T01:26:00.747Z,-0.88
2023-01-18T01:31:04.186Z,-0.86
2023-01-18T01:36:28.445Z,-0.88
2023-01-18T01:41:33.006Z,-0.93
2023-01-18T01:46:44.094Z,-0.96
2023-01-18T01:51:55.256Z,-0.96
2023-01-18T01:57:06.020Z,-0.93
2023-01-18T02:02:08.118Z,-0.92
2023-01-18T02:07:11.255Z,-0.87
2023-01-18T02:12:13.542Z,-0.85
2023-01-18T02:17:49.029Z,-0.86
2023-01-18T02:23:07.234Z,-0.80
2023-01-18T02:28:17.695Z,-0.78
2023-01-18T02:33:44.261Z,-0.76
2023-01-18T02:38:48.514Z,-0.75
2023-01-18T02:44:14.648Z,-0.78
2023-01-18T02:49:23.377Z,-0.84
2023-01-18T02:54:24.937Z,-0.94
2023-01-18T02:59:42.739Z,-0.93
2023-01-18T03:04:57.096Z,-0.86
2023-01-18T03:10:02.491Z,-0.96
2023-01-18T03:15:29.911Z,-1.01
2023-01-18T03:20:35.187Z,-0.92
2023-01-18T03:25:41.224Z,-0.84
2023-01-18T03:31:04.038Z,-0.74
2023-01-18T03:36:10.574Z,-0.75
2023-01-18T03:41:13.592Z,-0.67
2023-01-18T03:46:19.953Z,-0.57
2023-01-18T03:51:54.643Z,-0.48
2023-01-18T03:57:28.113Z,-0.42
2023-01-18T04:02:29.729Z,-0.46
2023-01-18T04:07:34.111Z,-0.58
2023-01-18T04:12:35.702Z,-0.81
2023-01-18T04:17:39.851Z,-0.98
2023-01-18T04:22:41.355Z,-1.10
2023-01-18T04:27:42.858Z,-1.12
2023-01-18T04:32:46.232Z,-1.09
2023-01-18T04:37:52.500Z,-1.08
2023-01-18T04:42:54.687Z,-1.05
2023-01-18T04:47:56.419Z,-0.97
2023-01-18T04:52:58.574Z,-0.80
2023-01-18T04:58:01.113Z,-0.72
2023-01-18T05:03:02.689Z,-0.58
2023-01-18T05:08:04.323Z,-0.58
2023-01-18T05:13:06.022Z,-0.46
2023-01-18T05:18:07.562Z,-0.50
2023-01-18T05:23:10.573Z,-0.50
2023-01-18T05:28:12.150Z,-0.42
2023-01-18T05:33:13.691Z,-0.38
2023-01-18T05:38:15.353Z,-0.27
2023-01-18T05:43:16.876Z,-0.20
2023-01-18T05:48:18.811Z,-0.24
2023-01-18T05:53:21.974Z,-0.16
2023-01-18T05:58:24.122Z,-0.13
2023-01-18T06:03:26.021Z,-0.10
2023-01-18T06:08:28.133Z,-0.16
2023-01-18T06:13:31.367Z,-0.13
2023-01-18T06:18:33.517Z,-0.10
2023-01-18T06:23:35.352Z,-0.11
2023-01-18T06:28:36.926Z,-0.16
2023-01-18T06:33:38.527Z,-0.11
2023-01-18T06:38:41.300Z,-0.14
2023-01-18T06:43:42.822Z,-0.15
2023-01-18T06:48:44.363Z,-0.21
2023-01-18T06:53:46.017Z,-0.12
2023-01-18T06:58:47.905Z,-0.08
2023-01-18T07:03:50.168Z,-0.14
2023-01-18T07:08:52.015Z,-0.14
2023-01-18T07:13:53.896Z,-0.12
2023-01-18T07:18:55.651Z,-0.08
2023-01-18T07:23:58.399Z,-0.05
2023-01-18T07:29:00.065Z,-0.04
2023-01-18T07:34:01.624Z,-0.17
2023-01-18T07:39:09.447Z,-0.14
2023-01-18T07:44:11.901Z,-0.12
2023-01-18T07:49:13.459Z,-0.06
2023-01-18T07:54:16.946Z,-0.03
2023-01-18T07:59:18.686Z,0.05
2023-01-18T08:04:26.218Z,0.11
2023-01-18T08:09:27.757Z,0.01
2023-01-18T08:14:29.324Z,-0.02
2023-01-18T08:19:30.867Z,0.04
2023-01-18T08:24:32.426Z,0.19
2023-01-18T08:29:34.155Z,0.26
2023-01-18T08:34:37.891Z,0.36
2023-01-18T08:39:39.454Z,0.50
2023-01-18T08:44:41.014Z,0.59
2023-01-18T08:49:42.525Z,0.73
2023-01-18T08:54:44.096Z,0.83
2023-01-18T08:59:45.617Z,1.00
2023-01-18T09:04:48.636Z,1.10
2023-01-18T09:09:50.181Z,1.17
2023-01-18T09:14:51.891Z,1.26
2023-01-18T09:19:54.448Z,1.32
2023-01-18T09:24:57.019Z,1.39
2023-01-18T09:29:58.776Z,1.44
2023-01-18T09:35:02.374Z,1.59
2023-01-18T09:40:04.299Z,1.70
2023-01-18T09:45:06.414Z,1.74
2023-01-18T09:50:20.838Z,1.71
2023-01-18T09:55:37.238Z,1.70
2023-01-18T10:00:46.343Z,1.86
2023-01-18T10:06:08.624Z,2.01
2023-01-18T10:11:31.655Z,2.24
2023-01-18T10:16:34.986Z,2.37
2023-01-18T10:21:47.421Z,2.49
2023-01-18T10:26:57.156Z,2.61
2023-01-18T10:32:03.883Z,2.75
2023-01-18T10:37:35.636Z,2.99
2023-01-18T10:42:47.895Z,3.06
2023-01-18T10:47:51.379Z,3.10
2023-01-18T10:52:52.916Z,3.24
2023-01-18T10:57:54.867Z,3.33
2023-01-18T11:02:58.077Z,3.41
2023-01-18T11:08:24.385Z,3.50
2023-01-18T11:13:32.068Z,3.61
2023-01-18T11:18:33.982Z,3.63
2023-01-18T11:23:36.448Z,3.74
2023-01-18T11:28:58.469Z,3.72
2023-01-18T11:34:08.413Z,3.78
2023-01-18T11:39:19.522Z,3.89
2023-01-18T11:44:34.925Z,3.99
2023-01-18T11:49:46.739Z,3.98
2023-01-18T11:54:53.284Z,3.86
2023-01-18T11:59:55.201Z,3.90
2023-01-18T12:05:28.684Z,4.02
2023-01-18T12:10:42.095Z,3.95
2023-01-18T12:16:02.475Z,3.86
2023-01-18T12:21:11.019Z,3.87
2023-01-18T12:26:24.901Z,3.93
2023-01-18T12:31:38.579Z,3.96
2023-01-18T12:37:17.983Z,3.87
2023-01-18T12:42:47.498Z,3.84
2023-01-18T12:48:21.870Z,3.80
2023-01-18T12:54:05.712Z,3.86
2023-01-18T12:59:15.823Z,3.90
2023-01-18T13:04:36.062Z,3.78
2023-01-18T13:09:43.752Z,3.80
2023-01-18T13:15:15.323Z,3.81
2023-01-18T13:20:21.108Z,3.86
2023-01-18T13:25:55.183Z,3.76
2023-01-18T13:31:02.029Z,3.70
2023-01-18T13:36:15.319Z,3.62
2023-01-18T13:41:23.656Z,3.51
2023-01-18T13:46:27.437Z,3.54
2023-01-18T13:51:41.225Z,3.24
2023-01-18T13:57:04.350Z,3.02
2023-01-18T14:02:36.063Z,2.66
2023-01-18T14:07:43.148Z,2.34
2023-01-18T14:12:50.778Z,2.06
2023-01-18T14:17:58.518Z,1.98
2023-01-18T14:23:28.749Z,2.04
2023-01-18T14:28:36.730Z,2.03
2023-01-18T14:33:42.382Z,1.91
2023-01-18T14:38:43.952Z,1.78
2023-01-18T14:43:48.539Z,1.65
2023-01-18T14:48:58.693Z,1.50
2023-01-18T14:54:05.110Z,1.29
2023-01-18T14:59:20.594Z,1.08
2023-01-18T15:04:28.278Z,0.89
2023-01-18T15:09:36.168Z,0.73
2023-01-18T15:14:44.346Z,0.55
2023-01-18T15:19:46.933Z,0.43
2023-01-18T15:24:48.556Z,0.34
2023-01-18T15:29:56.852Z,0.27
2023-01-18T15:35:00.168Z,0.16
2023-01-18T15:40:04.583Z,0.04
2023-01-18T15:45:18.500Z,-0.13
2023-01-18T15:50:33.756Z,-0.30
2023-01-18T15:55:49.356Z,-0.48
2023-01-18T16:00:57.803Z,-0.64
2023-01-18T16:06:07.368Z,-0.78
2023-01-18T16:11:25.692Z,-0.93
2023-01-18T16:16:29.413Z,-1.06
2023-01-18T16:21:53.081Z,-1.18
2023-01-18T16:26:55.805Z,-1.31
2023-01-18T16:32:18.006Z,-1.38
2023-01-18T16:37:21.926Z,-1.41
2023-01-18T16:42:37.023Z,-1.46
2023-01-18T16:47:39.433Z,-1.58
2023-01-18T16:52:40.997Z,-1.68
2023-01-18T16:57:43.496Z,-1.83
2023-01-18T17:02:45.866Z,-1.93
2023-01-18T17:07:47.915Z,-2.01
2023-01-18T17:12:49.488Z,-2.03
2023-01-18T17:17:51.032Z,-2.03
2023-01-18T17:22:54.061Z,-2.09
2023-01-18T17:27:56.757Z,-2.13
2023-01-18T17:32:58.634Z,-2.16
2023-01-18T17:38:06.508Z,-2.20
2023-01-18T17:43:17.371Z,-2.23
2023-01-18T17:48:21.158Z,-2.25
2023-01-18T17:53:22.817Z,-2.27
2023-01-18T17:58:24.627Z,-2.30
2023-01-18T18:03:26.149Z,-2.34
2023-01-18T18:08:27.897Z,-2.38
2023-01-18T18:13:30.576Z,-2.46
2023-01-18T18:18:32.183Z,-2.51
2023-01-18T18:23:34.998Z,-2.55
2023-01-18T18:28:36.658Z,-2.58
2023-01-18T18:33:38.156Z,-2.67
2023-01-18T18:38:39.724Z,-2.72
2023-01-18T18:43:41.255Z,-2.68
2023-01-18T18:48:42.898Z,-2.65
2023-01-18T18:53:44.432Z,-2.60
2023-01-18T18:58:48.888Z,-2.57
2023-01-18T19:03:51.953Z,-2.54
2023-01-18T19:08:54.325Z,-2.51
2023-01-18T19:13:56.702Z,-2.45
2023-01-18T19:18:58.207Z,-2.42
2023-01-18T19:23:59.779Z,-2.41
2023-01-18T19:29:01.361Z,-2.45
2023-01-18T19:34:05.293Z,-2.45
2023-01-18T19:39:09.273Z,-2.41
2023-01-18T19:44:16.512Z,-2.36
2023-01-18T19:49:20.139Z,-2.30
2023-01-18T19:54:22.236Z,-2.28
2023-01-18T19:59:23.787Z,-2.18
2023-01-18T20:04:25.328Z,-2.09
2023-01-18T20:09:38.326Z,-2.06
2023-01-18T20:14:45.227Z,-1.99
2023-01-18T20:19:47.080Z,-2.02
2023-01-18T20:24:48.626Z,-1.99
2023-01-18T20:29:50.672Z,-1.95
2023-01-18T20:34:52.219Z,-1.92
2023-01-18T20:39:55.915Z,-1.93
2023-01-18T20:45:00.434Z,-1.95
2023-01-18T20:50:03.318Z,-2.00
2023-01-18T20:55:05.193Z,-2.03
2023-01-18T21:00:08.064Z,-2.08
2023-01-18T21:05:10.021Z,-2.12
2023-01-18T21:10:11.866Z,-2.22
2023-01-18T21:15:13.455Z,-2.28
2023-01-18T21:20:15.289Z,-2.38
2023-01-18T21:25:16.845Z,-2.42
2023-01-18T21:30:18.905Z,-2.43
2023-01-18T21:35:20.483Z,-2.45
2023-01-18T21:40:22.036Z,-2.51
2023-01-18T21:45:42.219Z,-2.60
2023-01-18T21:51:02.371Z,-2.67
2023-01-18T21:56:04.603Z,-2.71
2023-01-18T22:01:14.908Z,-2.76
2023-01-18T22:06:16.491Z,-2.79
2023-01-18T22:11:18.052Z,-2.85
2023-01-18T22:16:19.758Z,-2.88
2023-01-18T22:21:25.171Z,-2.90
2023-01-18T22:26:29.291Z,-2.97
2023-01-18T22:31:30.851Z,-3.02
2023-01-18T22:36:33.249Z,-3.07
2023-01-18T22:41:34.776Z,-3.08
2023-01-18T22:46:36.360Z,-3.12
2023-01-18T22:51:38.111Z,-3.20
2023-01-18T22:56:39.702Z,-3.24
2023-01-18T23:01:41.239Z,-3.20
2023-01-18T23:06:47.825Z,-3.15
2023-01-18T23:11:49.664Z,-3.13
2023-01-18T23:17:10.108Z,-3.12
2023-01-18T23:22:11.646Z,-3.01
2023-01-18T23:27:13.341Z,-2.95
2023-01-18T23:32:15.004Z,-2.92
2023-01-18T23:37:16.768Z,-2.83
2023-01-18T23:42:36.964Z,-2.72
2023-01-18T23:47:57.176Z,-2.65
2023-01-18T23:53:20.608Z,-2.60
2023-01-18T23:58:22.213Z,-2.54
